Current Weather

Gatwick

Gatwick, United Kingdom (EGKK)

Report from: Monday, June 27, 2022 11:50 AM BST
Current time: Monday, June 27, 2022 12:04 PM BST

Nearby weather
Weather history
Weather forecast

Present weatherLight rain showers
Temperature16.0°C (60.8°F)
Dew point12.0°C (53.6°F)
Winds 10 kts (5.1 m/s, 11.5 mph) West-Southwest (250°)
Wind gusts 21 kts (10.8 m/s, 24.2 mph)
Visibility6.2 mi. (10 km)
Clouds Few clouds 2,300 ft. (701 m)
Scattered clouds 3,800 ft. (1,158 m)
Altimeter30.00 in.Hg (1016 mB)
Relative humidity77 %
Density altitude222 ft. (68 m)
Flight conditions Visual Meteorological Conditions
Raw dataEGKK 271050Z 25010G21KT 9999 -SHRA FEW023 SCT038 16/12 Q1016
An error has occurred. This application may no longer respond until reloaded. Reload 🗙